createdAt,value
2023-02-02T00:01:55.975Z,69.77
2023-02-02T00:04:25.719Z,69.34
2023-02-02T00:06:53.938Z,69.19
2023-02-02T00:09:23.036Z,68.93
2023-02-02T00:11:51.601Z,68.57
2023-02-02T00:14:20.143Z,69.24
2023-02-02T00:16:49.067Z,69.28
2023-02-02T00:19:18.657Z,69.49
2023-02-02T00:21:47.048Z,68.92
2023-02-02T00:24:18.983Z,69.51
2023-02-02T00:26:50.060Z,69.36
2023-02-02T00:29:19.202Z,68.60
2023-02-02T00:31:47.283Z,69.21
2023-02-02T00:34:16.093Z,68.88
2023-02-02T00:36:44.584Z,69.15
2023-02-02T00:39:15.982Z,69.22
2023-02-02T00:41:43.808Z,68.40
2023-02-02T00:44:30.555Z,68.86
2023-02-02T00:46:58.258Z,68.31
2023-02-02T00:49:26.102Z,68.85
2023-02-02T00:51:53.839Z,68.74
2023-02-02T00:54:21.546Z,67.83
2023-02-02T00:56:49.252Z,67.81
2023-02-02T00:59:18.399Z,68.26
2023-02-02T01:01:46.191Z,67.92
2023-02-02T01:04:13.913Z,67.44
2023-02-02T01:06:42.182Z,67.80
2023-02-02T01:09:10.070Z,68.07
2023-02-02T01:11:37.838Z,68.05
2023-02-02T01:14:05.835Z,68.02
2023-02-02T01:16:35.067Z,67.75
2023-02-02T01:19:03.166Z,68.29
2023-02-02T01:21:31.015Z,67.47
2023-02-02T01:23:58.913Z,67.84
2023-02-02T01:26:26.688Z,67.77
2023-02-02T01:28:54.393Z,67.77
2023-02-02T01:31:22.300Z,67.60
2023-02-02T01:33:52.164Z,67.28
2023-02-02T01:36:21.937Z,67.50
2023-02-02T01:38:50.867Z,67.36
2023-02-02T01:41:21.389Z,68.27
2023-02-02T01:43:55.326Z,67.06
2023-02-02T01:46:25.050Z,67.29
2023-02-02T01:49:00.967Z,67.50
2023-02-02T01:51:35.864Z,68.29
2023-02-02T01:54:06.404Z,67.14
2023-02-02T01:56:38.543Z,68.15
2023-02-02T01:59:07.753Z,67.54
2023-02-02T02:01:35.502Z,68.15
2023-02-02T02:04:04.797Z,68.44
2023-02-02T02:06:32.662Z,67.59
2023-02-02T02:09:03.792Z,68.03
2023-02-02T02:11:32.571Z,67.95
2023-02-02T02:14:20.437Z,68.04
2023-02-02T02:16:59.202Z,67.74
2023-02-02T02:20:16.991Z,67.73
2023-02-02T02:23:21.964Z,67.59
2023-02-02T02:26:27.091Z,67.53
2023-02-02T02:29:27.027Z,68.19
2023-02-02T02:32:15.248Z,67.79
2023-02-02T02:34:56.185Z,67.64
2023-02-02T02:37:34.648Z,67.77
2023-02-02T02:40:10.579Z,67.64
2023-02-02T02:42:43.064Z,67.68
2023-02-02T02:45:14.080Z,67.88
2023-02-02T02:47:44.663Z,68.58
2023-02-02T02:50:12.760Z,68.08
2023-02-02T02:52:41.909Z,67.85
2023-02-02T02:55:12.741Z,67.94
2023-02-02T02:58:00.162Z,68.30
2023-02-02T03:00:41.555Z,67.80
2023-02-02T03:03:20.728Z,67.89
2023-02-02T03:05:56.072Z,68.75
2023-02-02T03:08:29.298Z,68.85
2023-02-02T03:10:59.003Z,68.23
2023-02-02T03:13:28.026Z,67.89
2023-02-02T03:15:56.544Z,67.96
2023-02-02T03:18:28.739Z,67.62
2023-02-02T03:20:57.293Z,67.79
2023-02-02T03:23:25.325Z,67.90
2023-02-02T03:25:53.161Z,67.53
2023-02-02T03:28:24.090Z,67.76
2023-02-02T03:30:53.105Z,68.34
2023-02-02T03:33:20.840Z,68.40
2023-02-02T03:35:49.907Z,68.07
2023-02-02T03:38:17.674Z,68.45
2023-02-02T03:40:45.654Z,67.56
2023-02-02T03:43:13.344Z,67.86
2023-02-02T03:45:41.449Z,67.89
2023-02-02T03:48:09.146Z,67.86
2023-02-02T03:50:38.318Z,68.30
2023-02-02T03:53:07.413Z,68.17
2023-02-02T03:55:35.356Z,68.41
2023-02-02T03:58:03.084Z,68.28
2023-02-02T04:00:30.864Z,68.28
2023-02-02T04:02:58.635Z,67.86
2023-02-02T04:05:27.868Z,68.62
2023-02-02T04:07:55.684Z,68.51
2023-02-02T04:10:24.757Z,67.85
2023-02-02T04:12:52.515Z,68.19
2023-02-02T04:15:20.182Z,67.95
2023-02-02T04:17:47.887Z,68.12
2023-02-02T04:20:15.651Z,67.91
2023-02-02T04:22:43.342Z,68.07
2023-02-02T04:25:11.022Z,68.33
2023-02-02T04:27:40.060Z,68.24
2023-02-02T04:30:08.962Z,68.22
2023-02-02T04:32:36.739Z,68.10
2023-02-02T04:35:04.785Z,68.25
2023-02-02T04:37:33.131Z,68.17
2023-02-02T04:40:00.853Z,68.35
2023-02-02T04:42:28.570Z,68.87
2023-02-02T04:44:57.658Z,68.41
2023-02-02T04:47:25.698Z,67.87
2023-02-02T04:49:53.376Z,68.05
2023-02-02T04:52:21.055Z,67.83
2023-02-02T04:54:48.761Z,68.71
2023-02-02T04:57:17.658Z,68.20
2023-02-02T04:59:45.415Z,68.40
2023-02-02T05:02:14.472Z,68.41
2023-02-02T05:04:42.233Z,68.54
2023-02-02T05:07:10.055Z,68.28
2023-02-02T05:09:37.772Z,67.84
2023-02-02T05:12:06.127Z,67.94
2023-02-02T05:14:33.815Z,68.85
2023-02-02T05:17:01.579Z,68.37
2023-02-02T05:19:30.652Z,69.31
2023-02-02T05:21:58.359Z,69.26
2023-02-02T05:24:27.602Z,68.88
2023-02-02T05:26:58.671Z,68.50
2023-02-02T05:29:26.422Z,68.47
2023-02-02T05:31:54.163Z,68.52
2023-02-02T05:34:22.359Z,68.52
2023-02-02T05:36:51.469Z,69.41
2023-02-02T05:39:19.268Z,68.79
2023-02-02T05:41:46.997Z,68.56
2023-02-02T05:44:16.918Z,69.09
2023-02-02T05:46:45.619Z,69.22
2023-02-02T05:49:14.527Z,68.89
2023-02-02T05:51:45.986Z,69.22
2023-02-02T05:54:19.345Z,68.57
2023-02-02T05:56:47.348Z,69.31
2023-02-02T05:59:15.175Z,68.22
2023-02-02T06:01:42.919Z,68.67
2023-02-02T06:04:10.740Z,68.78
2023-02-02T06:06:39.138Z,68.70
2023-02-02T06:09:07.593Z,69.07
2023-02-02T06:11:37.113Z,68.55
2023-02-02T06:14:04.941Z,68.42
2023-02-02T06:16:32.709Z,68.50
2023-02-02T06:19:00.500Z,68.64
2023-02-02T06:21:31.121Z,68.83
2023-02-02T06:23:59.740Z,69.16
2023-02-02T06:26:27.552Z,68.84
2023-02-02T06:28:56.736Z,68.51
2023-02-02T06:31:25.159Z,68.61
2023-02-02T06:33:57.918Z,68.58
2023-02-02T06:36:27.392Z,69.60
2023-02-02T06:38:57.229Z,69.10
2023-02-02T06:41:25.552Z,69.29
2023-02-02T06:43:53.541Z,69.30
2023-02-02T06:46:22.720Z,68.61
2023-02-02T06:48:50.391Z,68.66
2023-02-02T06:51:18.203Z,68.99
2023-02-02T06:53:48.744Z,69.65
2023-02-02T06:56:17.097Z,68.99
2023-02-02T06:58:44.852Z,69.30
2023-02-02T07:01:13.956Z,69.36
2023-02-02T07:03:43.072Z,69.55
2023-02-02T07:06:15.144Z,69.48
2023-02-02T07:08:43.574Z,68.99
2023-02-02T07:11:15.454Z,68.94
2023-02-02T07:13:44.290Z,68.82
2023-02-02T07:16:12.903Z,69.33
2023-02-02T07:18:40.664Z,69.20
2023-02-02T07:21:10.641Z,69.36
2023-02-02T07:23:38.339Z,69.19
2023-02-02T07:26:08.696Z,68.80
2023-02-02T07:28:36.596Z,69.25
2023-02-02T07:31:14.998Z,69.54
2023-02-02T07:33:43.254Z,69.19
2023-02-02T07:36:12.720Z,68.85
2023-02-02T07:38:40.436Z,69.27
2023-02-02T07:41:08.206Z,69.48
2023-02-02T07:43:35.906Z,69.77
2023-02-02T07:46:06.575Z,69.13
2023-02-02T07:48:34.631Z,68.93
2023-02-02T07:51:02.771Z,70.18
2023-02-02T07:53:32.388Z,69.69
2023-02-02T07:56:08.882Z,69.27
2023-02-02T07:58:36.993Z,69.77
2023-02-02T08:01:06.266Z,69.97
2023-02-02T08:03:34.245Z,70.16
2023-02-02T08:06:02.156Z,70.06
2023-02-02T08:08:31.231Z,69.93
2023-02-02T08:10:58.928Z,70.27
2023-02-02T08:13:26.693Z,70.14
2023-02-02T08:15:54.449Z,69.65
2023-02-02T08:18:22.197Z,69.44
2023-02-02T08:20:49.889Z,70.01
2023-02-02T08:23:18.619Z,69.80
2023-02-02T08:25:47.672Z,70.09
2023-02-02T08:28:15.340Z,70.14
2023-02-02T08:30:43.136Z,69.67
2023-02-02T08:33:10.901Z,69.70
2023-02-02T08:35:42.141Z,70.13
2023-02-02T08:38:10.008Z,69.92
2023-02-02T08:40:37.840Z,69.97
2023-02-02T08:43:06.915Z,69.96
2023-02-02T08:46:04.448Z,69.76
2023-02-02T08:48:26.124Z,69.77
2023-02-02T08:50:55.163Z,70.16
2023-02-02T08:53:23.466Z,70.42
2023-02-02T08:55:59.672Z,70.66
2023-02-02T08:58:29.241Z,70.10
2023-02-02T09:01:05.766Z,69.91
2023-02-02T09:03:33.670Z,69.86
2023-02-02T09:06:05.198Z,69.31
2023-02-02T09:08:33.467Z,68.61
2023-02-02T09:11:05.690Z,67.84
2023-02-02T09:13:34.882Z,67.56
2023-02-02T09:16:02.997Z,66.72
2023-02-02T09:18:31.032Z,67.09
2023-02-02T09:21:01.633Z,66.35
2023-02-02T09:23:31.128Z,65.55
2023-02-02T09:25:59.015Z,65.55
2023-02-02T09:28:26.700Z,65.06
2023-02-02T09:30:55.819Z,65.18
2023-02-02T09:33:24.194Z,65.01
2023-02-02T09:35:51.939Z,64.89
2023-02-02T09:38:19.630Z,64.55
2023-02-02T09:40:47.469Z,64.09
2023-02-02T09:43:29.104Z,64.62
2023-02-02T09:46:06.414Z,64.87
2023-02-02T09:48:40.330Z,64.67
2023-02-02T09:51:14.212Z,64.90
2023-02-02T09:53:55.267Z,64.39
2023-02-02T09:56:27.651Z,64.32
2023-02-02T09:59:06.909Z,63.87
2023-02-02T10:01:45.822Z,63.53
2023-02-02T10:04:19.842Z,63.18
2023-02-02T10:06:50.080Z,63.15
2023-02-02T10:09:31.028Z,63.03
2023-02-02T10:12:06.017Z,62.91
2023-02-02T10:14:39.837Z,63.22
2023-02-02T10:17:28.797Z,63.40
2023-02-02T10:20:03.641Z,63.93
2023-02-02T10:22:35.257Z,64.32
2023-02-02T10:25:03.128Z,65.19
2023-02-02T10:27:38.548Z,65.26
2023-02-02T10:30:17.278Z,65.59
2023-02-02T10:32:50.713Z,65.97
2023-02-02T10:35:31.274Z,66.29
2023-02-02T10:38:07.442Z,65.85
2023-02-02T10:40:46.708Z,65.73
2023-02-02T10:43:47.708Z,65.20
2023-02-02T10:46:21.148Z,64.53
2023-02-02T10:48:52.854Z,63.82
2023-02-02T10:51:24.397Z,63.42
2023-02-02T10:53:54.447Z,63.30
2023-02-02T10:56:26.541Z,63.37
2023-02-02T10:59:03.165Z,63.57
2023-02-02T11:01:31.040Z,64.46
2023-02-02T11:04:17.686Z,64.63
2023-02-02T11:06:52.185Z,65.08
2023-02-02T11:09:23.189Z,65.84
2023-02-02T11:11:55.665Z,66.23
2023-02-02T11:14:33.665Z,66.50
2023-02-02T11:17:05.147Z,66.58
2023-02-02T11:19:36.235Z,66.24
2023-02-02T11:22:05.925Z,66.41
2023-02-02T11:24:41.087Z,67.01
2023-02-02T11:27:15.216Z,66.99
2023-02-02T11:29:46.325Z,66.82
2023-02-02T11:32:26.541Z,66.87
2023-02-02T11:35:15.715Z,66.90
2023-02-02T11:37:57.793Z,67.40
2023-02-02T11:40:31.598Z,67.27
2023-02-02T11:43:01.632Z,67.58
2023-02-02T11:45:35.416Z,67.23
2023-02-02T11:48:07.440Z,67.08
2023-02-02T11:50:36.816Z,65.78
2023-02-02T11:53:04.942Z,65.68
2023-02-02T11:55:33.480Z,64.82
2023-02-02T11:58:43.253Z,64.62
2023-02-02T12:01:24.079Z,63.68
2023-02-02T12:03:54.881Z,63.28
2023-02-02T12:06:26.480Z,62.97
2023-02-02T12:08:58.295Z,62.55
2023-02-02T12:11:44.864Z,62.50
2023-02-02T12:14:32.708Z,62.95
2023-02-02T12:17:12.847Z,63.66
2023-02-02T12:20:05.939Z,64.15
2023-02-02T12:22:57.400Z,64.83
2023-02-02T12:25:43.757Z,65.15
2023-02-02T12:28:22.536Z,65.24
2023-02-02T12:30:59.178Z,64.86
2023-02-02T12:33:36.042Z,65.30
2023-02-02T12:36:18.730Z,65.75
2023-02-02T12:39:02.401Z,65.49
2023-02-02T12:41:48.945Z,65.81
2023-02-02T12:44:23.528Z,66.24
2023-02-02T12:47:02.659Z,66.15
2023-02-02T12:50:00.592Z,66.51
2023-02-02T12:52:35.147Z,66.69
2023-02-02T12:55:17.803Z,66.17
2023-02-02T12:57:57.607Z,66.94
2023-02-02T13:00:44.899Z,66.29
2023-02-02T13:03:30.088Z,66.67
2023-02-02T13:06:14.231Z,66.42
2023-02-02T13:08:51.932Z,66.77
2023-02-02T13:11:32.784Z,66.23
2023-02-02T13:14:09.123Z,66.29
2023-02-02T13:16:40.978Z,66.44
2023-02-02T13:19:13.485Z,66.31
2023-02-02T13:21:44.158Z,65.89
2023-02-02T13:24:19.383Z,65.44
2023-02-02T13:26:50.002Z,65.10
2023-02-02T13:29:28.523Z,64.24
2023-02-02T13:32:02.387Z,63.85
2023-02-02T13:34:41.395Z,63.25
2023-02-02T13:37:17.245Z,62.88
2023-02-02T13:39:49.430Z,62.40
2023-02-02T13:42:29.796Z,62.51
2023-02-02T13:45:02.985Z,62.85
2023-02-02T13:47:39.548Z,63.30
2023-02-02T13:50:15.020Z,64.43
2023-02-02T13:53:05.052Z,64.83
2023-02-02T13:55:54.677Z,65.59
2023-02-02T13:58:53.590Z,65.46
2023-02-02T14:01:22.960Z,66.08
2023-02-02T14:03:55.201Z,66.20
2023-02-02T14:06:24.974Z,66.56
2023-02-02T14:08:56.726Z,67.19
2023-02-02T14:11:28.333Z,67.18
2023-02-02T14:14:18.314Z,67.40
2023-02-02T14:16:50.260Z,67.38
2023-02-02T14:19:41.991Z,67.27
2023-02-02T14:22:37.344Z,67.58
2023-02-02T14:25:25.895Z,67.46
2023-02-02T14:27:59.772Z,67.55
2023-02-02T14:30:35.888Z,67.96
2023-02-02T14:33:26.783Z,68.32
2023-02-02T14:36:02.727Z,68.58
2023-02-02T14:39:04.953Z,69.70
2023-02-02T14:42:07.205Z,69.88
2023-02-02T14:44:37.970Z,70.09
2023-02-02T14:47:48.294Z,70.47
2023-02-02T14:50:19.331Z,69.98
2023-02-02T14:52:59.938Z,69.47
2023-02-02T14:55:29.111Z,69.25
2023-02-02T14:57:59.094Z,69.59
2023-02-02T15:00:32.215Z,69.27
2023-02-02T15:03:37.478Z,69.41
2023-02-02T15:06:09.451Z,68.81
2023-02-02T15:08:37.315Z,68.32
2023-02-02T15:11:27.770Z,67.97
2023-02-02T15:14:07.186Z,67.12
2023-02-02T15:16:39.511Z,67.08
2023-02-02T15:19:14.782Z,66.96
2023-02-02T15:21:44.328Z,66.99
2023-02-02T15:24:23.549Z,67.67
2023-02-02T15:26:53.617Z,68.28
2023-02-02T15:29:31.448Z,68.89
2023-02-02T15:32:01.592Z,69.26
2023-02-02T15:34:40.026Z,69.99
2023-02-02T15:37:12.631Z,69.95
2023-02-02T15:39:43.584Z,70.38
2023-02-02T15:42:35.808Z,71.05
2023-02-02T15:45:03.607Z,71.08
2023-02-02T15:47:36.004Z,71.07
2023-02-02T15:50:17.777Z,71.19
2023-02-02T15:52:48.227Z,71.53
2023-02-02T15:55:22.784Z,71.41
2023-02-02T15:57:54.083Z,71.90
2023-02-02T16:00:28.262Z,71.44
2023-02-02T16:03:03.510Z,72.55
2023-02-02T16:05:47.555Z,73.02
2023-02-02T16:08:19.401Z,73.05
2023-02-02T16:10:48.918Z,73.29
2023-02-02T16:13:24.880Z,73.41
2023-02-02T16:15:57.035Z,73.72
2023-02-02T16:18:26.173Z,73.76
2023-02-02T16:20:55.712Z,73.44
2023-02-02T16:23:28.948Z,73.93
2023-02-02T16:25:59.856Z,74.01
2023-02-02T16:28:28.141Z,73.77
2023-02-02T16:30:56.920Z,74.08
2023-02-02T16:33:37.610Z,74.18
2023-02-02T16:36:24.402Z,74.07
2023-02-02T16:38:53.120Z,73.71
2023-02-02T16:41:29.967Z,73.69
2023-02-02T16:43:57.570Z,74.22
2023-02-02T16:46:44.446Z,73.91
2023-02-02T16:49:19.649Z,73.84
2023-02-02T16:51:48.528Z,74.73
2023-02-02T16:54:21.323Z,74.51
2023-02-02T16:56:52.041Z,74.90
2023-02-02T16:59:24.388Z,74.21
2023-02-02T17:01:55.703Z,74.68
2023-02-02T17:04:27.884Z,74.48
2023-02-02T17:06:58.086Z,74.74
2023-02-02T17:09:35.603Z,74.16
2023-02-02T17:12:14.298Z,74.13
2023-02-02T17:14:53.724Z,74.29
2023-02-02T17:17:21.724Z,73.52
2023-02-02T17:19:50.975Z,73.80
2023-02-02T17:22:22.017Z,73.80
2023-02-02T17:24:52.298Z,73.44
2023-02-02T17:27:26.955Z,74.33
2023-02-02T17:29:55.252Z,73.68
2023-02-02T17:32:23.727Z,73.60
2023-02-02T17:34:52.775Z,73.79
2023-02-02T17:37:20.448Z,73.23
2023-02-02T17:39:48.488Z,72.68
2023-02-02T17:42:24.003Z,72.49
2023-02-02T17:44:51.764Z,71.73
2023-02-02T17:47:19.607Z,70.53
2023-02-02T17:49:47.313Z,70.20
2023-02-02T17:52:16.425Z,69.63
2023-02-02T17:54:44.138Z,70.06
2023-02-02T17:57:11.888Z,70.09
2023-02-02T17:59:39.610Z,70.67
2023-02-02T18:02:07.444Z,70.63
2023-02-02T18:04:35.178Z,71.04
2023-02-02T18:07:03.706Z,71.24
2023-02-02T18:09:34.247Z,71.73
2023-02-02T18:12:02.092Z,71.93
2023-02-02T18:14:29.932Z,71.91
2023-02-02T18:16:57.664Z,71.86
2023-02-02T18:19:25.509Z,72.05
2023-02-02T18:21:53.275Z,71.78
2023-02-02T18:24:20.975Z,72.08
2023-02-02T18:26:50.111Z,72.06
2023-02-02T18:29:17.837Z,71.91
2023-02-02T18:31:45.702Z,71.82
2023-02-02T18:34:13.693Z,72.26
2023-02-02T18:36:41.462Z,72.02
2023-02-02T18:39:09.952Z,72.05
2023-02-02T18:41:37.672Z,71.92
2023-02-02T18:44:06.779Z,72.16
2023-02-02T18:46:34.661Z,72.50
2023-02-02T18:49:02.417Z,72.01
2023-02-02T18:51:31.594Z,71.85
2023-02-02T18:54:00.426Z,70.89
2023-02-02T18:56:28.935Z,70.23
2023-02-02T18:58:57.161Z,69.66
2023-02-02T19:01:26.597Z,69.10
2023-02-02T19:03:57.092Z,68.40
2023-02-02T19:06:43.482Z,67.90
2023-02-02T19:09:13.606Z,67.60
2023-02-02T19:11:44.903Z,67.75
2023-02-02T19:14:15.295Z,68.10
2023-02-02T19:16:45.414Z,68.72
2023-02-02T19:19:21.447Z,69.08
2023-02-02T19:21:49.390Z,68.95
2023-02-02T19:24:17.087Z,69.87
2023-02-02T19:26:49.347Z,69.86
2023-02-02T19:29:20.127Z,70.26
2023-02-02T19:31:52.754Z,70.35
2023-02-02T19:34:23.387Z,70.56
2023-02-02T19:36:52.230Z,70.59
2023-02-02T19:39:21.937Z,71.12
2023-02-02T19:41:49.783Z,70.79
2023-02-02T19:44:20.401Z,71.13
2023-02-02T19:46:51.348Z,70.67
2023-02-02T19:49:27.099Z,71.15
2023-02-02T19:51:56.774Z,71.43
2023-02-02T19:54:30.844Z,71.14
2023-02-02T19:57:00.667Z,71.50
2023-02-02T19:59:34.298Z,71.37
2023-02-02T20:02:23.990Z,71.76
2023-02-02T20:04:59.731Z,71.42
2023-02-02T20:07:27.649Z,71.27
2023-02-02T20:09:57.133Z,72.02
2023-02-02T20:12:32.701Z,71.90
2023-02-02T20:15:00.422Z,71.82
2023-02-02T20:17:34.457Z,71.57
2023-02-02T20:20:04.736Z,71.72
2023-02-02T20:22:33.509Z,71.55
2023-02-02T20:25:08.435Z,72.03
2023-02-02T20:27:36.257Z,72.12
2023-02-02T20:30:19.671Z,71.42
2023-02-02T20:32:52.091Z,72.10
2023-02-02T20:35:35.351Z,71.98
2023-02-02T20:38:03.713Z,71.25
2023-02-02T20:40:31.810Z,71.59
2023-02-02T20:42:59.514Z,71.37
2023-02-02T20:45:27.817Z,72.00
2023-02-02T20:47:56.935Z,71.60
2023-02-02T20:50:25.414Z,72.07
2023-02-02T20:52:54.037Z,72.02
2023-02-02T20:55:21.818Z,71.91
2023-02-02T20:57:49.588Z,71.76
2023-02-02T21:00:21.314Z,71.31
2023-02-02T21:02:49.201Z,71.92
2023-02-02T21:05:18.391Z,71.51
2023-02-02T21:07:46.115Z,71.61
2023-02-02T21:10:13.877Z,71.94
2023-02-02T21:12:41.571Z,72.10
2023-02-02T21:15:10.543Z,71.48
2023-02-02T21:17:40.376Z,71.69
2023-02-02T21:20:11.156Z,71.41
2023-02-02T21:22:40.335Z,71.33
2023-02-02T21:25:08.816Z,71.74
2023-02-02T21:27:37.644Z,71.41
2023-02-02T21:30:06.162Z,72.03
2023-02-02T21:32:34.487Z,71.65
2023-02-02T21:35:02.213Z,71.71
2023-02-02T21:37:29.931Z,71.44
2023-02-02T21:40:00.453Z,71.74
2023-02-02T21:42:32.074Z,71.84
2023-02-02T21:45:09.326Z,71.22
2023-02-02T21:47:41.225Z,71.45
2023-02-02T21:50:16.541Z,71.72
2023-02-02T21:52:44.346Z,71.75
2023-02-02T21:55:34.623Z,71.26
2023-02-02T21:58:15.338Z,71.43
2023-02-02T22:00:43.103Z,71.18
2023-02-02T22:03:26.867Z,71.20
2023-02-02T22:06:00.513Z,71.52
2023-02-02T22:08:28.246Z,71.73
2023-02-02T22:10:57.291Z,71.09
2023-02-02T22:13:26.616Z,71.79
2023-02-02T22:15:54.387Z,70.91
2023-02-02T22:18:24.346Z,71.49
2023-02-02T22:20:54.437Z,71.28
2023-02-02T22:23:23.396Z,71.27
2023-02-02T22:25:53.985Z,71.13
2023-02-02T22:28:26.071Z,71.69
2023-02-02T22:30:55.186Z,71.87
2023-02-02T22:33:26.284Z,71.44
2023-02-02T22:35:54.353Z,71.64
2023-02-02T22:38:24.521Z,71.24
2023-02-02T22:40:53.290Z,71.64
2023-02-02T22:43:22.934Z,71.29
2023-02-02T22:45:50.605Z,72.10
2023-02-02T22:48:18.825Z,71.21
2023-02-02T22:50:47.182Z,71.22
2023-02-02T22:53:15.620Z,71.58
2023-02-02T22:55:43.980Z,71.08
2023-02-02T22:58:11.753Z,71.78
2023-02-02T23:00:40.849Z,71.21
2023-02-02T23:03:08.772Z,71.58
2023-02-02T23:05:36.707Z,71.17
2023-02-02T23:08:04.445Z,71.57
2023-02-02T23:10:35.705Z,71.13
2023-02-02T23:13:05.855Z,71.56
2023-02-02T23:15:34.710Z,71.41
2023-02-02T23:18:05.156Z,71.80
2023-02-02T23:20:32.970Z,71.37
2023-02-02T23:23:00.671Z,71.44
2023-02-02T23:25:28.464Z,71.68
2023-02-02T23:27:56.184Z,71.80
2023-02-02T23:30:24.534Z,71.19
2023-02-02T23:32:52.989Z,71.66
2023-02-02T23:35:22.222Z,71.28
2023-02-02T23:37:50.019Z,71.16
2023-02-02T23:40:17.910Z,70.97
2023-02-02T23:42:45.648Z,71.37
2023-02-02T23:45:16.125Z,71.78
2023-02-02T23:47:44.370Z,71.61
2023-02-02T23:50:13.268Z,71.13
2023-02-02T23:52:42.462Z,71.21
2023-02-02T23:55:11.123Z,70.99
2023-02-02T23:57:39.201Z,71.54
